Time;durP1;ratioP1;P1;durP2;ratioP2;P2;SDS_P1;SDS_P2;PMS_P1;PMS_P2;Temp;Humidity;BMP_temperature;BMP_pressure;BME280_temperature;BME280_humidity;BME280_pressure;Samples;Min_cycle;Max_cycle;Signal;HPM_P1;HPM_P2
2023/11/01 00:01:39;;;;;;;2.92;2.60;;;;;;;;;;5049137;28;20053;-69
2023/11/01 00:04:06;;;;;;;5.15;2.75;;;;;;;;;;5050270;28;20258;-69
2023/11/01 00:06:32;;;;;;;5.70;2.97;;;;;;;;;;5033142;28;20037;-69
2023/11/01 00:08:58;;;;;;;6.53;3.30;;;;;;;;;;5048826;28;20484;-68
2023/11/01 00:11:24;;;;;;;6.40;4.03;;;;;;;;;;5047882;28;20513;-72
2023/11/01 00:13:51;;;;;;;6.82;4.25;;;;;;;;;;5030771;28;20059;-69
2023/11/01 00:16:17;;;;;;;8.13;4.15;;;;;;;;;;5045822;28;20037;-68
2023/11/01 00:18:43;;;;;;;5.63;3.78;;;;;;;;;;5045878;28;20090;-68
2023/11/01 00:21:09;;;;;;;6.63;3.85;;;;;;;;;;5041986;28;20029;-68
2023/11/01 00:23:35;;;;;;;6.15;3.70;;;;;;;;;;5044460;28;20474;-68
2023/11/01 00:26:01;;;;;;;6.50;4.72;;;;;;;;;;5045710;28;20386;-69
2023/11/01 00:28:28;;;;;;;9.50;4.70;;;;;;;;;;5024614;28;20033;-70
2023/11/01 00:30:54;;;;;;;7.18;4.65;;;;;;;;;;5027754;28;20032;-68
2023/11/01 00:33:21;;;;;;;8.75;4.78;;;;;;;;;;5026683;28;20033;-68
2023/11/01 00:35:47;;;;;;;8.55;4.57;;;;;;;;;;5051374;28;20099;-69
2023/11/01 00:38:14;;;;;;;7.70;4.68;;;;;;;;;;5045109;28;20028;-68
2023/11/01 00:40:40;;;;;;;8.85;5.22;;;;;;;;;;5046278;28;20057;-68
2023/11/01 00:43:06;;;;;;;8.85;5.45;;;;;;;;;;5028101;28;20244;-69
2023/11/01 00:45:32;;;;;;;9.68;5.30;;;;;;;;;;5045209;28;20097;-68
2023/11/01 00:47:58;;;;;;;7.05;5.70;;;;;;;;;;5052474;28;20501;-69
2023/11/01 00:50:24;;;;;;;10.02;4.45;;;;;;;;;;5028511;28;20130;-68
2023/11/01 00:52:50;;;;;;;7.03;4.93;;;;;;;;;;5048067;28;20031;-68
2023/11/01 00:55:17;;;;;;;11.50;3.88;;;;;;;;;;5044356;28;20132;-69
2023/11/01 00:57:43;;;;;;;10.43;3.92;;;;;;;;;;5025167;28;20850;-68
2023/11/01 01:00:09;;;;;;;7.95;3.58;;;;;;;;;;5045478;28;20029;-68
2023/11/01 01:02:36;;;;;;;4.45;3.60;;;;;;;;;;5046884;28;20444;-69
2023/11/01 01:05:02;;;;;;;10.02;3.70;;;;;;;;;;5021089;28;21424;-69
2023/11/01 01:07:28;;;;;;;5.47;3.00;;;;;;;;;;5047789;28;20053;-68
2023/11/01 01:09:54;;;;;;;4.32;2.80;;;;;;;;;;5043023;28;20118;-71
2023/11/01 01:12:20;;;;;;;5.72;2.30;;;;;;;;;;5026223;28;20397;-69
2023/11/01 01:14:46;;;;;;;7.65;2.88;;;;;;;;;;5031589;28;20040;-70
2023/11/01 01:17:12;;;;;;;3.20;2.10;;;;;;;;;;5045656;28;20040;-70
2023/11/01 01:19:39;;;;;;;7.07;2.60;;;;;;;;;;5049402;28;20671;-69
2023/11/01 01:22:05;;;;;;;8.52;2.88;;;;;;;;;;5043057;28;20092;-70
2023/11/01 01:24:31;;;;;;;6.03;1.92;;;;;;;;;;5022293;28;20060;-69
2023/11/01 01:26:57;;;;;;;11.10;2.50;;;;;;;;;;5029599;28;20494;-69
2023/11/01 01:29:23;;;;;;;7.05;2.17;;;;;;;;;;5030132;28;20029;-69
2023/11/01 01:31:49;;;;;;;12.85;3.05;;;;;;;;;;5022982;28;22121;-69
2023/11/01 01:34:15;;;;;;;9.55;2.53;;;;;;;;;;5038703;28;20032;-69
2023/11/01 01:36:41;;;;;;;7.30;2.30;;;;;;;;;;5041035;28;20024;-68
2023/11/01 01:39:07;;;;;;;6.82;2.28;;;;;;;;;;5041238;28;20447;-69
2023/11/01 01:41:34;;;;;;;8.60;2.30;;;;;;;;;;5044748;28;20024;-68
2023/11/01 01:44:00;;;;;;;7.80;2.17;;;;;;;;;;5043924;28;20039;-68
2023/11/01 01:46:28;;;;;;;10.43;3.45;;;;;;;;;;5051440;28;20440;-70
2023/11/01 01:48:55;;;;;;;11.07;4.25;;;;;;;;;;5044518;28;20075;-68
2023/11/01 01:51:21;;;;;;;8.63;2.67;;;;;;;;;;5034359;28;20035;-68
2023/11/01 01:53:47;;;;;;;5.68;2.35;;;;;;;;;;5044061;28;20578;-68
2023/11/01 01:56:15;;;;;;;9.75;2.22;;;;;;;;;;5046854;28;20036;-68
2023/11/01 01:58:42;;;;;;;8.13;2.78;;;;;;;;;;5046032;28;20037;-69
2023/11/01 02:01:08;;;;;;;7.63;2.67;;;;;;;;;;5031604;28;20151;-70
2023/11/01 02:03:36;;;;;;;5.63;2.58;;;;;;;;;;5045431;28;20489;-68
2023/11/01 02:06:02;;;;;;;7.97;2.58;;;;;;;;;;5051610;28;20024;-69
2023/11/01 02:08:29;;;;;;;7.05;2.55;;;;;;;;;;5048825;28;20577;-69
2023/11/01 02:10:55;;;;;;;6.30;2.13;;;;;;;;;;5030442;28;20024;-69
2023/11/01 02:13:21;;;;;;;5.00;2.35;;;;;;;;;;5030807;28;20043;-68
2023/11/01 02:15:49;;;;;;;5.25;2.30;;;;;;;;;;5048208;28;20390;-69
2023/11/01 02:18:15;;;;;;;2.65;2.00;;;;;;;;;;5040884;28;20029;-69
2023/11/01 02:20:46;;;;;;;3.50;2.20;;;;;;;;;;5049376;28;20102;-69
2023/11/01 02:23:12;;;;;;;5.57;2.00;;;;;;;;;;5043853;28;20025;-69
2023/11/01 02:25:39;;;;;;;5.45;1.95;;;;;;;;;;5030545;28;20497;-69
2023/11/01 02:28:07;;;;;;;6.40;3.47;;;;;;;;;;5044779;28;20029;-68
2023/11/01 02:30:33;;;;;;;5.88;2.10;;;;;;;;;;5039426;28;20040;-68
2023/11/01 02:32:59;;;;;;;3.97;2.00;;;;;;;;;;5045006;28;20044;-69
2023/11/01 02:35:26;;;;;;;2.22;2.00;;;;;;;;;;5019436;28;20033;-69
2023/11/01 02:37:53;;;;;;;3.60;1.70;;;;;;;;;;5050343;28;22151;-69
2023/11/01 02:40:19;;;;;;;2.65;1.42;;;;;;;;;;5040286;28;20036;-69
2023/11/01 02:42:47;;;;;;;1.70;1.60;;;;;;;;;;5042836;28;20024;-69
2023/11/01 02:45:13;;;;;;;4.35;2.10;;;;;;;;;;5041375;28;20030;-69
2023/11/01 02:47:40;;;;;;;2.38;1.58;;;;;;;;;;5040695;28;20543;-69
2023/11/01 02:50:07;;;;;;;3.83;1.77;;;;;;;;;;5042627;28;20029;-69
2023/11/01 02:52:33;;;;;;;4.40;1.88;;;;;;;;;;5017558;28;20033;-69
2023/11/01 02:55:05;;;;;;;3.40;1.60;;;;;;;;;;5040706;28;20059;-68
2023/11/01 02:57:34;;;;;;;3.03;1.65;;;;;;;;;;5039269;28;20109;-69
2023/11/01 03:00:00;;;;;;;4.40;1.52;;;;;;;;;;5041987;28;20559;-70
2023/11/01 03:02:26;;;;;;;2.05;1.55;;;;;;;;;;5035506;28;20092;-69
2023/11/01 03:04:53;;;;;;;5.32;1.85;;;;;;;;;;5042279;28;20025;-69
2023/11/01 03:07:19;;;;;;;4.75;1.60;;;;;;;;;;5035172;28;20037;-68
2023/11/01 03:09:45;;;;;;;1.95;1.50;;;;;;;;;;5023667;28;20029;-68
2023/11/01 03:12:11;;;;;;;1.60;1.50;;;;;;;;;;5039772;28;20116;-67
2023/11/01 03:14:38;;;;;;;5.32;1.70;;;;;;;;;;5042826;28;20406;-67
2023/11/01 03:17:04;;;;;;;1.58;1.48;;;;;;;;;;5042845;28;20033;-67
2023/11/01 03:19:31;;;;;;;2.65;1.88;;;;;;;;;;5043059;28;20025;-69
2023/11/01 03:21:57;;;;;;;2.20;1.60;;;;;;;;;;5019739;28;20018;-70
2023/11/01 03:24:23;;;;;;;8.98;2.30;;;;;;;;;;5042186;28;20711;-69
2023/11/01 03:26:49;;;;;;;4.47;2.40;;;;;;;;;;5020981;28;20502;-69
2023/11/01 03:29:16;;;;;;;3.55;1.98;;;;;;;;;;5042298;28;20033;-69
2023/11/01 03:31:42;;;;;;;3.03;1.88;;;;;;;;;;5041392;28;20561;-69
2023/11/01 03:34:09;;;;;;;3.97;1.70;;;;;;;;;;5042217;28;20024;-69
2023/11/01 03:36:35;;;;;;;2.80;1.83;;;;;;;;;;5040755;28;20056;-69
2023/11/01 03:39:01;;;;;;;3.40;1.67;;;;;;;;;;5017012;28;20021;-69
2023/11/01 03:41:27;;;;;;;2.20;1.70;;;;;;;;;;5033655;28;21884;-69
2023/11/01 03:43:53;;;;;;;3.60;1.88;;;;;;;;;;5037859;28;20168;-69
2023/11/01 03:46:19;;;;;;;2.67;1.80;;;;;;;;;;5036771;28;20436;-70
2023/11/01 03:48:49;;;;;;;2.85;1.50;;;;;;;;;;5039623;28;20118;-69
2023/11/01 03:51:15;;;;;;;2.95;1.65;;;;;;;;;;5036401;28;20032;-69
2023/11/01 03:53:41;;;;;;;4.55;1.90;;;;;;;;;;5044534;28;20025;-69
2023/11/01 03:56:07;;;;;;;3.47;1.67;;;;;;;;;;5038931;28;20040;-68
2023/11/01 03:58:34;;;;;;;2.40;1.73;;;;;;;;;;5021250;28;20021;-66
2023/11/01 04:01:00;;;;;;;4.82;1.58;;;;;;;;;;5025987;28;20304;-67
2023/11/01 04:03:26;;;;;;;2.38;1.55;;;;;;;;;;5044764;28;20057;-70
2023/11/01 04:05:54;;;;;;;1.73;1.63;;;;;;;;;;5045387;28;20505;-67
2023/11/01 04:08:20;;;;;;;2.55;1.58;;;;;;;;;;5041344;28;20466;-67
2023/11/01 04:10:46;;;;;;;3.08;1.45;;;;;;;;;;5025555;28;20509;-67
2023/11/01 04:13:13;;;;;;;1.98;1.30;;;;;;;;;;5022275;28;20182;-68
2023/11/01 04:15:39;;;;;;;1.65;1.50;;;;;;;;;;5038251;28;20029;-68
2023/11/01 04:18:05;;;;;;;1.67;1.58;;;;;;;;;;5041584;28;20033;-68
2023/11/01 04:20:31;;;;;;;1.73;1.50;;;;;;;;;;5040987;28;20029;-69
2023/11/01 04:22:58;;;;;;;1.88;1.60;;;;;;;;;;5042304;28;20025;-68
2023/11/01 04:25:24;;;;;;;4.03;1.65;;;;;;;;;;5040979;28;20378;-68
2023/11/01 04:27:50;;;;;;;1.63;1.23;;;;;;;;;;5020433;28;20071;-68
2023/11/01 04:30:16;;;;;;;3.42;1.90;;;;;;;;;;5039850;28;20707;-70
2023/11/01 04:32:43;;;;;;;2.08;1.88;;;;;;;;;;5034702;28;20032;-68
2023/11/01 04:35:09;;;;;;;3.05;1.48;;;;;;;;;;5042301;28;20416;-68
2023/11/01 04:37:39;;;;;;;1.35;1.25;;;;;;;;;;5043070;28;20144;-68
2023/11/01 04:40:10;;;;;;;1.52;1.42;;;;;;;;;;5038364;28;20028;-68
2023/11/01 04:42:39;;;;;;;1.48;1.38;;;;;;;;;;5041376;28;20386;-70
2023/11/01 04:45:06;;;;;;;2.47;1.58;;;;;;;;;;5034799;28;20025;-69
2023/11/01 04:47:35;;;;;;;5.60;1.60;;;;;;;;;;5046259;28;20028;-70
2023/11/01 04:50:02;;;;;;;2.38;1.40;;;;;;;;;;5018967;28;20028;-70
2023/11/01 04:52:28;;;;;;;1.85;1.50;;;;;;;;;;5045483;28;20018;-69
2023/11/01 04:54:54;;;;;;;1.67;1.58;;;;;;;;;;5047863;28;20163;-69
2023/11/01 04:57:21;;;;;;;1.20;1.20;;;;;;;;;;5035555;28;20032;-68
2023/11/01 04:59:47;;;;;;;2.25;1.30;;;;;;;;;;5035038;28;20394;-68
2023/11/01 05:02:13;;;;;;;1.40;1.30;;;;;;;;;;5040560;28;20071;-68
2023/11/01 05:04:39;;;;;;;1.48;1.38;;;;;;;;;;5036100;28;20025;-68
2023/11/01 05:07:05;;;;;;;2.40;1.67;;;;;;;;;;5042429;28;20036;-69
2023/11/01 05:09:31;;;;;;;2.95;1.65;;;;;;;;;;5037764;28;20039;-68
2023/11/01 05:11:58;;;;;;;1.50;1.40;;;;;;;;;;5041135;28;20033;-69
2023/11/01 05:14:24;;;;;;;1.88;1.65;;;;;;;;;;5036427;28;20029;-68
2023/11/01 05:16:50;;;;;;;3.10;1.77;;;;;;;;;;5040738;28;20041;-70
2023/11/01 05:19:19;;;;;;;2.35;1.83;;;;;;;;;;5038076;28;20023;-69
2023/11/01 05:21:45;;;;;;;6.18;1.83;;;;;;;;;;5036957;28;20025;-69
2023/11/01 05:24:11;;;;;;;4.75;1.95;;;;;;;;;;5022535;28;20585;-69
2023/11/01 05:26:38;;;;;;;4.00;2.13;;;;;;;;;;5029670;28;20022;-68
2023/11/01 05:29:04;;;;;;;5.85;1.65;;;;;;;;;;5036987;28;20021;-69
2023/11/01 05:31:32;;;;;;;8.40;1.80;;;;;;;;;;5020034;28;20114;-68
2023/11/01 05:33:59;;;;;;;4.53;1.90;;;;;;;;;;5034917;28;20036;-69
2023/11/01 05:36:26;;;;;;;1.98;1.75;;;;;;;;;;5013128;28;20033;-70
2023/11/01 05:38:52;;;;;;;2.92;1.55;;;;;;;;;;5038560;28;20047;-69
2023/11/01 05:41:19;;;;;;;3.50;2.25;;;;;;;;;;5034727;28;20028;-68
2023/11/01 05:43:45;;;;;;;4.40;1.88;;;;;;;;;;5033333;28;20025;-69
2023/11/01 05:46:11;;;;;;;4.38;1.92;;;;;;;;;;5034854;28;20751;-69
2023/11/01 05:48:37;;;;;;;10.20;2.55;;;;;;;;;;5035919;28;20029;-69
2023/11/01 05:51:05;;;;;;;6.38;1.85;;;;;;;;;;5035501;28;20033;-69
2023/11/01 05:53:34;;;;;;;3.75;2.03;;;;;;;;;;5034499;28;20128;-69
2023/11/01 05:56:01;;;;;;;2.80;1.70;;;;;;;;;;5034924;28;20040;-69
2023/11/01 05:58:28;;;;;;;3.72;2.03;;;;;;;;;;5037280;28;20017;-69
2023/11/01 06:00:55;;;;;;;4.22;2.03;;;;;;;;;;5030306;28;20037;-69
2023/11/01 06:03:24;;;;;;;5.10;2.00;;;;;;;;;;5032349;28;20207;-69
2023/11/01 06:05:51;;;;;;;3.80;2.00;;;;;;;;;;5035696;28;20037;-69
2023/11/01 06:08:18;;;;;;;7.00;1.70;;;;;;;;;;5037204;28;20032;-69
2023/11/01 06:10:44;;;;;;;8.65;2.45;;;;;;;;;;5042354;28;20036;-69
2023/11/01 06:13:11;;;;;;;7.40;2.00;;;;;;;;;;5027449;28;20033;-69
2023/11/01 06:15:37;;;;;;;8.18;2.75;;;;;;;;;;5033173;28;20067;-67
2023/11/01 06:18:07;;;;;;;4.63;2.58;;;;;;;;;;5033569;28;20032;-69
2023/11/01 06:20:36;;;;;;;4.18;2.00;;;;;;;;;;5044008;28;20016;-68
2023/11/01 06:23:09;;;;;;;7.93;2.58;;;;;;;;;;5035396;28;20025;-69
2023/11/01 06:25:36;;;;;;;3.63;1.55;;;;;;;;;;5038918;28;20037;-69
2023/11/01 06:28:02;;;;;;;6.55;2.20;;;;;;;;;;5031776;28;20032;-69
2023/11/01 06:30:29;;;;;;;6.13;2.25;;;;;;;;;;5032710;28;20037;-69
2023/11/01 06:32:55;;;;;;;6.07;2.17;;;;;;;;;;5038632;28;20334;-69
2023/11/01 06:35:21;;;;;;;12.95;3.35;;;;;;;;;;5038498;28;20048;-69
2023/11/01 06:37:48;;;;;;;5.00;2.70;;;;;;;;;;5035515;28;20036;-69
2023/11/01 06:40:15;;;;;;;6.30;2.00;;;;;;;;;;5044473;28;20359;-69
2023/11/01 06:42:41;;;;;;;9.25;2.55;;;;;;;;;;5017886;28;20739;-69
2023/11/01 06:45:07;;;;;;;5.20;2.22;;;;;;;;;;5031470;28;20025;-69
2023/11/01 06:47:33;;;;;;;7.20;2.42;;;;;;;;;;5037150;28;20453;-69
2023/11/01 06:49:59;;;;;;;11.85;2.72;;;;;;;;;;5015320;28;20212;-68
2023/11/01 06:52:26;;;;;;;10.63;2.63;;;;;;;;;;5041554;28;20021;-69
2023/11/01 06:54:52;;;;;;;8.88;2.33;;;;;;;;;;5033624;28;20087;-69
2023/11/01 06:57:18;;;;;;;7.70;2.35;;;;;;;;;;5030835;28;20409;-69
2023/11/01 06:59:48;;;;;;;9.30;3.13;;;;;;;;;;5032529;28;20037;-69
2023/11/01 07:02:14;;;;;;;10.93;3.25;;;;;;;;;;5035640;28;20506;-68
2023/11/01 07:04:40;;;;;;;6.32;1.92;;;;;;;;;;5028484;28;20337;-68
2023/11/01 07:07:07;;;;;;;7.18;2.72;;;;;;;;;;5035212;28;20028;-62
2023/11/01 07:09:33;;;;;;;7.35;2.47;;;;;;;;;;5030404;28;20321;-60
2023/11/01 07:11:59;;;;;;;6.20;2.38;;;;;;;;;;5031703;28;20115;-60
2023/11/01 07:14:25;;;;;;;7.82;2.40;;;;;;;;;;5032233;28;20060;-61
2023/11/01 07:16:51;;;;;;;8.25;2.25;;;;;;;;;;5032662;28;20056;-61
2023/11/01 07:19:17;;;;;;;6.35;2.30;;;;;;;;;;5034186;28;20052;-60
2023/11/01 07:21:47;;;;;;;7.47;2.20;;;;;;;;;;5013912;28;20029;-60
2023/11/01 07:24:13;;;;;;;14.15;3.38;;;;;;;;;;5035198;28;21680;-60
2023/11/01 07:26:39;;;;;;;8.60;2.75;;;;;;;;;;5033546;28;20021;-61
2023/11/01 07:29:05;;;;;;;6.45;2.20;;;;;;;;;;5025063;28;20506;-61
2023/11/01 07:31:31;;;;;;;7.47;2.15;;;;;;;;;;5030097;28;21355;-61
2023/11/01 07:33:58;;;;;;;6.90;2.80;;;;;;;;;;5045279;28;20545;-62
2023/11/01 07:36:24;;;;;;;7.85;2.70;;;;;;;;;;5041957;28;20561;-63
2023/11/01 07:38:50;;;;;;;3.47;2.10;;;;;;;;;;5041872;28;20533;-61
2023/11/01 07:41:16;;;;;;;6.82;2.40;;;;;;;;;;5043429;28;20030;-62
2023/11/01 07:43:43;;;;;;;7.32;2.70;;;;;;;;;;5021391;28;20469;-61
2023/11/01 07:46:10;;;;;;;9.95;2.85;;;;;;;;;;5024230;28;20033;-61
2023/11/01 07:48:37;;;;;;;7.72;2.58;;;;;;;;;;5043654;28;20029;-61
2023/11/01 07:51:05;;;;;;;10.40;2.80;;;;;;;;;;5042651;28;20442;-60
2023/11/01 07:53:31;;;;;;;7.30;2.38;;;;;;;;;;5036157;28;20079;-61
2023/11/01 07:55:58;;;;;;;3.95;2.30;;;;;;;;;;5029346;28;20374;-60
2023/11/01 07:58:24;;;;;;;6.75;2.28;;;;;;;;;;5021023;28;20163;-63
2023/11/01 08:00:50;;;;;;;8.10;2.92;;;;;;;;;;5024972;28;20709;-60
2023/11/01 08:03:17;;;;;;;3.90;2.00;;;;;;;;;;5038408;28;20042;-61
2023/11/01 08:05:43;;;;;;;3.30;2.08;;;;;;;;;;5041054;28;20029;-60
2023/11/01 08:08:10;;;;;;;6.45;2.45;;;;;;;;;;5055656;28;20493;-61
2023/11/01 08:10:36;;;;;;;8.27;2.30;;;;;;;;;;5043626;28;20363;-62
2023/11/01 08:13:02;;;;;;;9.23;2.85;;;;;;;;;;5047824;28;20379;-62
2023/11/01 08:15:32;;;;;;;5.75;2.65;;;;;;;;;;5034547;28;20108;-62
2023/11/01 08:17:58;;;;;;;4.95;2.00;;;;;;;;;;5040554;28;20036;-61
2023/11/01 08:20:24;;;;;;;2.47;1.80;;;;;;;;;;5033282;28;20545;-62
2023/11/01 08:22:51;;;;;;;9.00;2.38;;;;;;;;;;5037095;28;20037;-61
2023/11/01 08:25:20;;;;;;;5.88;2.00;;;;;;;;;;5045057;28;20036;-62
2023/11/01 08:27:46;;;;;;;5.45;2.17;;;;;;;;;;5040411;28;20036;-61
2023/11/01 08:30:13;;;;;;;5.93;2.45;;;;;;;;;;5040348;28;20414;-62
2023/11/01 08:32:40;;;;;;;5.28;2.13;;;;;;;;;;5035602;28;20390;-61
2023/11/01 08:35:08;;;;;;;6.13;2.10;;;;;;;;;;5033059;28;20260;-60
2023/11/01 08:37:34;;;;;;;6.53;2.35;;;;;;;;;;5035410;28;20478;-61
2023/11/01 08:40:01;;;;;;;4.40;1.85;;;;;;;;;;5045878;28;20032;-61
2023/11/01 08:42:28;;;;;;;3.90;2.03;;;;;;;;;;5038855;28;20027;-61
2023/11/01 08:44:55;;;;;;;2.17;1.98;;;;;;;;;;5041285;28;20379;-61
2023/11/01 08:47:33;;;;;;;7.20;2.15;;;;;;;;;;5042127;28;20032;-64
2023/11/01 08:50:00;;;;;;;4.05;2.15;;;;;;;;;;5040527;28;20131;-61
2023/11/01 08:52:26;;;;;;;3.42;2.38;;;;;;;;;;5039212;28;20036;-61
2023/11/01 08:54:52;;;;;;;5.18;2.13;;;;;;;;;;5037849;28;20112;-60
2023/11/01 08:57:22;;;;;;;5.32;2.13;;;;;;;;;;5043034;28;20132;-61
2023/11/01 08:59:49;;;;;;;6.07;2.10;;;;;;;;;;5027631;28;20033;-60
2023/11/01 09:02:16;;;;;;;8.77;2.78;;;;;;;;;;5035266;28;20052;-62
2023/11/01 09:04:43;;;;;;;3.22;2.10;;;;;;;;;;5040681;28;20025;-61
2023/11/01 09:07:09;;;;;;;4.88;2.08;;;;;;;;;;5022433;28;20033;-60
2023/11/01 09:09:36;;;;;;;4.97;1.80;;;;;;;;;;5016106;28;20032;-60
2023/11/01 09:12:02;;;;;;;8.02;2.15;;;;;;;;;;5034361;28;20108;-61
2023/11/01 09:14:28;;;;;;;6.40;2.17;;;;;;;;;;5033182;28;20033;-61
2023/11/01 09:16:55;;;;;;;9.00;2.70;;;;;;;;;;5038127;28;20021;-61
2023/11/01 09:19:21;;;;;;;6.82;2.50;;;;;;;;;;5044746;28;20075;-63
2023/11/01 09:21:47;;;;;;;10.57;2.83;;;;;;;;;;5022112;28;20437;-61
2023/11/01 09:24:13;;;;;;;9.00;3.25;;;;;;;;;;5035927;28;20052;-60
2023/11/01 09:26:39;;;;;;;12.20;3.72;;;;;;;;;;5042901;28;20497;-61
2023/11/01 09:29:05;;;;;;;6.30;3.10;;;;;;;;;;5040063;28;20585;-60
2023/11/01 09:31:37;;;;;;;4.65;2.45;;;;;;;;;;5032597;28;20039;-60
2023/11/01 09:34:04;;;;;;;10.27;3.20;;;;;;;;;;5039465;28;20033;-60
2023/11/01 09:36:30;;;;;;;6.32;2.47;;;;;;;;;;5041757;28;20375;-60
2023/11/01 09:38:56;;;;;;;10.70;2.35;;;;;;;;;;5021709;28;20053;-61
2023/11/01 09:41:28;;;;;;;10.30;2.65;;;;;;;;;;5035554;28;20033;-61
2023/11/01 09:43:59;;;;;;;7.07;2.35;;;;;;;;;;5039244;28;20022;-60
2023/11/01 09:46:26;;;;;;;10.25;2.08;;;;;;;;;;5031876;28;20028;-61
2023/11/01 09:48:56;;;;;;;5.10;2.10;;;;;;;;;;5038010;28;20047;-61
2023/11/01 09:51:23;;;;;;;3.53;2.17;;;;;;;;;;5020202;28;20526;-60
2023/11/01 09:53:50;;;;;;;1.77;1.50;;;;;;;;;;5039796;28;20394;-61
2023/11/01 09:56:16;;;;;;;7.60;3.15;;;;;;;;;;5041372;28;20032;-62
2023/11/01 09:58:43;;;;;;;4.13;2.03;;;;;;;;;;5040700;28;20032;-61
2023/11/01 10:01:09;;;;;;;3.10;2.03;;;;;;;;;;5044586;28;20021;-63
2023/11/01 10:03:36;;;;;;;3.83;1.80;;;;;;;;;;5044501;28;20139;-62
2023/11/01 10:06:02;;;;;;;4.00;1.70;;;;;;;;;;5044914;28;20477;-64
2023/11/01 10:08:28;;;;;;;1.88;1.55;;;;;;;;;;5046902;28;20029;-64
2023/11/01 10:11:00;;;;;;;2.00;1.80;;;;;;;;;;5040876;28;20682;-61
2023/11/01 10:13:29;;;;;;;1.88;1.50;;;;;;;;;;5042233;28;20044;-60
2023/11/01 10:15:55;;;;;;;2.45;1.92;;;;;;;;;;5036171;28;20038;-60
2023/11/01 10:18:21;;;;;;;2.38;1.60;;;;;;;;;;5041359;28;20035;-61
2023/11/01 10:20:47;;;;;;;3.15;1.70;;;;;;;;;;5040570;28;20051;-60
2023/11/01 10:23:13;;;;;;;3.95;1.52;;;;;;;;;;5041123;28;20017;-61
2023/11/01 10:25:39;;;;;;;3.50;1.60;;;;;;;;;;5040327;28;20053;-60
2023/11/01 10:28:15;;;;;;;2.05;1.50;;;;;;;;;;5036624;28;20033;-60
2023/11/01 10:30:44;;;;;;;2.40;1.50;;;;;;;;;;5033748;28;20113;-61
2023/11/01 10:33:10;;;;;;;1.95;1.45;;;;;;;;;;5017220;28;20503;-61
2023/11/01 10:35:37;;;;;;;2.53;1.45;;;;;;;;;;5048034;28;20029;-61
2023/11/01 10:38:05;;;;;;;1.55;1.35;;;;;;;;;;5038287;28;20033;-61
2023/11/01 10:40:31;;;;;;;2.08;1.70;;;;;;;;;;5037740;28;20488;-62
2023/11/01 10:42:58;;;;;;;2.30;1.90;;;;;;;;;;5021523;28;20033;-61
2023/11/01 10:45:24;;;;;;;1.50;1.40;;;;;;;;;;5037869;28;20025;-61
2023/11/01 10:47:54;;;;;;;2.45;1.67;;;;;;;;;;5020145;28;20115;-61
2023/11/01 10:50:22;;;;;;;2.10;1.50;;;;;;;;;;5022055;28;20036;-61
2023/11/01 10:52:48;;;;;;;3.63;1.73;;;;;;;;;;5040854;28;20033;-61
2023/11/01 10:55:19;;;;;;;1.77;1.45;;;;;;;;;;5041568;28;20132;-60
2023/11/01 10:57:49;;;;;;;2.22;1.60;;;;;;;;;;5029827;28;20030;-61
2023/11/01 11:00:24;;;;;;;1.73;1.60;;;;;;;;;;5038718;28;20127;-61
2023/11/01 11:03:07;;;;;;;2.00;1.40;;;;;;;;;;5039266;28;20046;-61
2023/11/01 11:05:33;;;;;;;2.53;1.48;;;;;;;;;;5035273;28;20039;-66
2023/11/01 11:07:59;;;;;;;2.83;2.10;;;;;;;;;;5037787;28;20439;-61
2023/11/01 11:10:33;;;;;;;1.55;1.45;;;;;;;;;;5048001;28;20393;-61
2023/11/01 11:13:13;;;;;;;5.13;1.98;;;;;;;;;;5041663;28;20033;-60
2023/11/01 11:15:50;;;;;;;3.15;1.75;;;;;;;;;;5038161;28;20079;-61
2023/11/01 11:18:21;;;;;;;5.85;1.98;;;;;;;;;;5040087;28;20036;-61
2023/11/01 11:20:48;;;;;;;5.40;2.00;;;;;;;;;;5038167;28;20474;-61
2023/11/01 11:23:19;;;;;;;6.40;2.17;;;;;;;;;;5046031;28;20028;-61
2023/11/01 11:25:55;;;;;;;6.85;2.85;;;;;;;;;;5046667;28;20026;-61
2023/11/01 11:28:21;;;;;;;3.60;1.80;;;;;;;;;;5042246;28;20021;-61
2023/11/01 11:31:12;;;;;;;6.15;2.08;;;;;;;;;;5037255;28;20253;-61
2023/11/01 11:33:47;;;;;;;4.20;2.00;;;;;;;;;;5045704;28;20029;-61
2023/11/01 11:36:13;;;;;;;5.10;2.42;;;;;;;;;;5036060;28;20497;-61
2023/11/01 11:38:47;;;;;;;6.03;2.20;;;;;;;;;;5038298;28;20036;-63
2023/11/01 11:41:22;;;;;;;7.93;2.70;;;;;;;;;;5045387;28;20021;-60
2023/11/01 11:43:58;;;;;;;4.00;2.30;;;;;;;;;;5038815;28;20076;-61
2023/11/01 11:46:31;;;;;;;5.75;2.20;;;;;;;;;;5039905;28;20063;-61
2023/11/01 11:49:02;;;;;;;3.88;2.20;;;;;;;;;;5044454;28;20037;-62
2023/11/01 11:51:29;;;;;;;6.15;2.92;;;;;;;;;;5038979;28;20129;-61
2023/11/01 11:53:56;;;;;;;6.95;2.47;;;;;;;;;;5041792;28;20043;-68
2023/11/01 11:56:22;;;;;;;5.68;1.98;;;;;;;;;;5040383;28;20028;-63
2023/11/01 11:58:48;;;;;;;3.97;2.15;;;;;;;;;;5034558;28;20025;-61
2023/11/01 12:01:27;;;;;;;7.82;2.35;;;;;;;;;;5036613;28;20032;-62
2023/11/01 12:03:56;;;;;;;9.98;2.33;;;;;;;;;;5044034;28;20056;-61
2023/11/01 12:06:24;;;;;;;11.18;3.38;;;;;;;;;;5041599;28;20446;-63
2023/11/01 12:08:50;;;;;;;5.65;2.40;;;;;;;;;;5040087;28;20025;-61
2023/11/01 12:11:17;;;;;;;4.32;2.42;;;;;;;;;;5039033;28;20509;-60
2023/11/01 12:13:50;;;;;;;3.17;1.92;;;;;;;;;;5039290;28;20033;-60
2023/11/01 12:16:29;;;;;;;11.05;2.50;;;;;;;;;;5014301;28;20033;-61
2023/11/01 12:19:16;;;;;;;3.22;2.33;;;;;;;;;;5032839;28;20026;-62
2023/11/01 12:21:43;;;;;;;8.52;3.00;;;;;;;;;;5037437;28;20021;-61
2023/11/01 12:24:10;;;;;;;6.80;3.03;;;;;;;;;;5031067;28;20112;-61
2023/11/01 12:26:55;;;;;;;6.70;2.88;;;;;;;;;;5031821;28;20588;-62
2023/11/01 12:29:21;;;;;;;5.40;2.45;;;;;;;;;;5032813;28;20910;-61
2023/11/01 12:32:00;;;;;;;5.50;3.03;;;;;;;;;;5042662;28;20029;-62
2023/11/01 12:34:26;;;;;;;9.85;3.90;;;;;;;;;;5034647;28;20029;-61
2023/11/01 12:37:00;;;;;;;7.50;3.13;;;;;;;;;;5039256;28;20558;-61
2023/11/01 12:39:26;;;;;;;10.52;3.60;;;;;;;;;;5036212;28;20075;-61
2023/11/01 12:41:52;;;;;;;7.88;3.80;;;;;;;;;;5037482;28;20029;-61
2023/11/01 12:44:18;;;;;;;9.43;3.42;;;;;;;;;;5041185;28;20752;-61
2023/11/01 12:46:45;;;;;;;9.48;3.13;;;;;;;;;;5012745;28;20026;-60
2023/11/01 12:49:11;;;;;;;11.80;3.40;;;;;;;;;;5040034;28;20036;-61
2023/11/01 12:51:37;;;;;;;8.15;3.38;;;;;;;;;;5051163;28;20397;-60
2023/11/01 12:54:03;;;;;;;8.82;3.03;;;;;;;;;;5037222;28;20108;-60
2023/11/01 12:56:30;;;;;;;7.18;2.72;;;;;;;;;;5043459;28;20432;-61
2023/11/01 12:58:56;;;;;;;8.95;3.30;;;;;;;;;;5043564;28;20192;-60
2023/11/01 13:01:22;;;;;;;8.70;3.42;;;;;;;;;;5040229;28;20087;-61
2023/11/01 13:03:48;;;;;;;11.00;3.58;;;;;;;;;;5039524;28;20033;-61
2023/11/01 13:06:14;;;;;;;8.93;3.70;;;;;;;;;;5034231;28;20020;-61
2023/11/01 13:08:40;;;;;;;10.88;3.65;;;;;;;;;;5045395;28;20048;-60
2023/11/01 13:11:08;;;;;;;10.13;3.10;;;;;;;;;;5032327;28;20085;-61
2023/11/01 13:13:34;;;;;;;8.38;3.17;;;;;;;;;;5043375;28;20025;-61
2023/11/01 13:16:00;;;;;;;7.05;3.03;;;;;;;;;;5039638;28;20076;-61
2023/11/01 13:18:26;;;;;;;8.55;3.42;;;;;;;;;;5041440;28;20033;-61
2023/11/01 13:20:53;;;;;;;10.43;3.35;;;;;;;;;;5035929;28;20037;-61
2023/11/01 13:23:19;;;;;;;5.68;2.55;;;;;;;;;;5035919;28;20029;-61
2023/11/01 13:25:45;;;;;;;5.57;2.22;;;;;;;;;;5035352;28;20029;-61
2023/11/01 13:28:11;;;;;;;6.70;2.65;;;;;;;;;;5037555;28;20044;-61
2023/11/01 13:30:37;;;;;;;7.13;2.60;;;;;;;;;;5035787;28;20025;-61
2023/11/01 13:33:03;;;;;;;4.50;2.50;;;;;;;;;;5033234;28;20424;-61
2023/11/01 13:35:29;;;;;;;7.18;3.03;;;;;;;;;;5032898;28;20033;-61
2023/11/01 13:37:55;;;;;;;7.97;3.00;;;;;;;;;;5043605;28;20040;-61
2023/11/01 13:40:21;;;;;;;4.47;2.20;;;;;;;;;;5043803;28;20032;-62
2023/11/01 13:42:47;;;;;;;9.20;2.92;;;;;;;;;;5037581;28;20083;-62
2023/11/01 13:45:14;;;;;;;6.78;2.90;;;;;;;;;;5036634;28;20279;-62
2023/11/01 13:47:40;;;;;;;7.35;3.22;;;;;;;;;;5041466;28;20028;-61
2023/11/01 13:50:08;;;;;;;10.57;6.22;;;;;;;;;;5022386;28;20025;-62
2023/11/01 13:52:35;;;;;;;6.68;2.88;;;;;;;;;;5030778;28;20161;-61
2023/11/01 13:55:01;;;;;;;4.80;2.78;;;;;;;;;;5016668;28;20025;-62
2023/11/01 13:57:28;;;;;;;7.85;2.60;;;;;;;;;;5039178;28;20024;-62
2023/11/01 13:59:54;;;;;;;4.50;2.20;;;;;;;;;;5038321;28;20494;-61
2023/11/01 14:02:20;;;;;;;8.75;2.50;;;;;;;;;;5038909;28;20037;-61
2023/11/01 14:04:46;;;;;;;3.53;2.28;;;;;;;;;;5035280;28;20353;-62
2023/11/01 14:07:12;;;;;;;4.63;2.20;;;;;;;;;;5041534;28;20557;-62
2023/11/01 14:09:39;;;;;;;5.22;2.53;;;;;;;;;;5037653;28;20066;-62
2023/11/01 14:12:06;;;;;;;6.40;2.30;;;;;;;;;;5036355;28;20024;-62
2023/11/01 14:14:32;;;;;;;4.72;2.10;;;;;;;;;;5032850;28;20025;-62
2023/11/01 14:16:58;;;;;;;5.10;2.00;;;;;;;;;;5044040;28;20385;-61
2023/11/01 14:19:24;;;;;;;5.45;2.25;;;;;;;;;;5031344;28;20028;-62
2023/11/01 14:21:50;;;;;;;4.85;2.53;;;;;;;;;;5034344;28;20038;-61
2023/11/01 14:24:17;;;;;;;5.50;2.03;;;;;;;;;;5039674;28;20025;-61
2023/11/01 14:26:44;;;;;;;7.57;2.47;;;;;;;;;;5036798;28;20033;-61
2023/11/01 14:29:10;;;;;;;5.82;2.45;;;;;;;;;;5035190;28;20043;-61
2023/11/01 14:31:37;;;;;;;4.05;2.25;;;;;;;;;;5040295;28;20440;-62
2023/11/01 14:34:03;;;;;;;3.97;2.70;;;;;;;;;;5040199;28;20037;-61
2023/11/01 14:36:29;;;;;;;7.13;2.17;;;;;;;;;;5009418;28;20025;-61
2023/11/01 14:38:56;;;;;;;4.85;2.10;;;;;;;;;;5033258;28;20051;-61
2023/11/01 14:41:22;;;;;;;8.23;2.90;;;;;;;;;;5045555;28;20095;-60
2023/11/01 14:43:48;;;;;;;3.53;2.40;;;;;;;;;;5031513;28;20616;-60